Time;durP1;ratioP1;P1;durP2;ratioP2;P2;SDS_P1;SDS_P2;PMS_P1;PMS_P2;Temp;Humidity;BMP_temperature;BMP_pressure;BME280_temperature;BME280_humidity;BME280_pressure;Samples;Min_cycle;Max_cycle;Signal;HPM_P1;HPM_P2
2022/06/17 00:01:03;;;;;;;3.90;1.80;;;19.30;78.20;;;;;;5083442;28;46576;-70
2022/06/17 00:03:32;;;;;;;4.07;2.45;;;19.30;78.40;;;;;;5080742;28;46522;-70
2022/06/17 00:06:02;;;;;;;2.78;1.80;;;19.10;79.20;;;;;;5072779;28;45444;-69
2022/06/17 00:08:31;;;;;;;5.97;2.13;;;19.10;79.00;;;;;;5075491;28;45324;-69
2022/06/17 00:10:58;;;;;;;2.65;2.00;;;19.20;78.80;;;;;;5080599;28;45300;-69
2022/06/17 00:13:27;;;;;;;3.83;2.45;;;19.30;78.90;;;;;;5081800;27;45717;-69
2022/06/17 00:15:54;;;;;;;6.32;1.80;;;19.30;79.40;;;;;;5091832;27;45560;-69
2022/06/17 00:18:22;;;;;;;4.05;2.00;;;19.30;78.40;;;;;;5088822;27;45097;-69
2022/06/17 00:20:50;;;;;;;4.05;2.20;;;19.30;78.80;;;;;;5077271;28;45449;-70
2022/06/17 00:23:20;;;;;;;7.82;2.40;;;19.30;78.60;;;;;;5078285;28;45367;-69
2022/06/17 00:25:49;;;;;;;3.47;1.90;;;19.40;78.40;;;;;;5078000;28;45279;-69
2022/06/17 00:28:18;;;;;;;3.08;1.75;;;19.40;78.10;;;;;;5082079;27;45508;-70
2022/06/17 00:30:47;;;;;;;4.45;1.75;;;19.40;77.70;;;;;;5084161;27;46262;-69
2022/06/17 00:33:15;;;;;;;3.17;1.70;;;19.50;77.80;;;;;;5078871;28;45288;-69
2022/06/17 00:35:45;;;;;;;3.00;1.80;;;19.40;76.40;;;;;;5078728;28;45435;-69
2022/06/17 00:38:14;;;;;;;2.83;1.75;;;19.20;77.50;;;;;;5081285;28;45626;-69
2022/06/17 00:40:42;;;;;;;3.90;1.85;;;19.20;77.90;;;;;;5078018;28;45668;-69
2022/06/17 00:43:23;;;;;;;2.80;1.63;;;19.10;78.40;;;;;;5080292;28;45186;-69
2022/06/17 00:46:02;;;;;;;3.92;2.00;;;19.20;78.60;;;;;;5084707;28;45256;-69
2022/06/17 00:48:33;;;;;;;4.07;1.90;;;19.20;77.90;;;;;;5084612;28;45279;-69
2022/06/17 00:51:06;;;;;;;3.80;2.10;;;19.30;77.60;;;;;;5086950;27;45494;-69
2022/06/17 00:53:39;;;;;;;5.40;2.00;;;19.30;77.70;;;;;;5079303;28;45808;-69
2022/06/17 00:56:16;;;;;;;3.60;2.22;;;19.30;77.60;;;;;;5077952;28;45308;-69
2022/06/17 00:58:58;;;;;;;6.30;1.90;;;19.40;76.60;;;;;;5081863;28;45816;-69
2022/06/17 01:01:27;;;;;;;2.95;1.80;;;19.50;78.50;;;;;;5081000;28;46178;-69
2022/06/17 01:03:58;;;;;;;3.75;2.20;;;19.50;76.80;;;;;;5078629;27;45476;-70
2022/06/17 01:06:31;;;;;;;3.50;1.95;;;19.50;76.30;;;;;;5079843;27;45248;-69
2022/06/17 01:11:46;;;;;;;2.65;1.98;;;19.40;76.60;;;;;;5083375;28;45563;-69
2022/06/17 01:14:16;;;;;;;4.10;2.03;;;19.30;77.60;;;;;;5080152;27;46551;-69
2022/06/17 01:16:46;;;;;;;5.30;1.98;;;19.20;77.50;;;;;;5085148;27;45305;-69
2022/06/17 01:19:23;;;;;;;3.92;2.20;;;19.20;77.60;;;;;;5078578;28;45291;-69
2022/06/17 01:21:54;;;;;;;3.55;1.92;;;19.10;78.40;;;;;;5081642;28;46200;-69
2022/06/17 01:24:23;;;;;;;5.63;2.60;;;19.10;79.20;;;;;;5081179;28;45374;-69
2022/06/17 01:26:50;;;;;;;10.65;2.47;;;19.20;78.40;;;;;;5075370;28;45485;-69
2022/06/17 01:29:16;;;;;;;4.63;1.90;;;19.20;77.60;;;;;;5081770;28;45160;-69
2022/06/17 01:31:48;;;;;;;4.88;2.30;;;19.20;77.60;;;;;;5076923;27;47440;-69
2022/06/17 01:34:17;;;;;;;6.38;1.88;;;19.30;77.70;;;;;;5084556;27;45284;-70
2022/06/17 01:36:45;;;;;;;4.03;2.15;;;19.30;77.70;;;;;;5080972;28;45303;-69
2022/06/17 01:39:13;;;;;;;4.53;1.98;;;19.20;78.60;;;;;;5082933;27;45291;-69
2022/06/17 01:41:44;;;;;;;6.22;1.98;;;19.20;78.50;;;;;;5081060;28;45465;-70
2022/06/17 01:44:21;;;;;;;3.25;2.08;;;19.20;78.80;;;;;;5083211;28;45231;-69
2022/06/17 01:46:52;;;;;;;3.47;2.00;;;19.10;78.20;;;;;;5086857;27;45319;-69
2022/06/17 01:49:22;;;;;;;4.03;2.33;;;19.10;78.40;;;;;;5082750;28;45474;-69
2022/06/17 01:51:54;;;;;;;6.07;2.38;;;19.20;77.50;;;;;;5079135;28;46096;-69
2022/06/17 01:54:24;;;;;;;9.85;2.30;;;19.20;77.50;;;;;;5080909;28;45141;-69
2022/06/17 01:56:56;;;;;;;6.75;2.25;;;19.20;77.50;;;;;;5085405;28;45296;-69
2022/06/17 01:59:28;;;;;;;2.72;2.00;;;19.30;77.70;;;;;;5079468;28;45125;-69
2022/06/17 02:01:57;;;;;;;2.45;1.98;;;19.30;77.70;;;;;;5076895;28;45161;-69
2022/06/17 02:04:27;;;;;;;4.00;2.03;;;19.20;78.40;;;;;;5079525;28;45324;-69
2022/06/17 02:07:00;;;;;;;4.72;2.20;;;19.10;79.60;;;;;;5082704;27;45319;-69
2022/06/17 02:09:27;;;;;;;4.63;2.13;;;19.00;79.70;;;;;;5090762;27;46687;-69
2022/06/17 02:11:55;;;;;;;5.15;2.00;;;18.90;80.00;;;;;;5082292;28;46503;-69
2022/06/17 02:14:23;;;;;;;4.60;2.10;;;18.90;80.30;;;;;;5078303;27;45394;-69
2022/06/17 02:16:53;;;;;;;2.80;2.28;;;18.90;80.50;;;;;;5090902;27;45270;-69
2022/06/17 02:19:23;;;;;;;5.65;2.40;;;18.90;80.80;;;;;;5075093;28;45336;-69
2022/06/17 02:21:53;;;;;;;3.08;2.13;;;18.80;81.50;;;;;;5071190;28;47293;-69
2022/06/17 02:24:48;;;;;;;7.53;2.50;;;18.80;80.30;;;;;;5074723;28;45122;-69
2022/06/17 02:27:17;;;;;;;2.95;1.95;;;18.80;80.70;;;;;;5080522;27;45382;-69
2022/06/17 02:29:45;;;;;;;4.30;2.55;;;18.80;80.60;;;;;;5096324;27;45315;-69
2022/06/17 02:32:13;;;;;;;3.03;2.30;;;18.80;80.70;;;;;;5083514;27;47285;-69
2022/06/17 02:34:50;;;;;;;5.55;1.85;;;18.80;80.50;;;;;;5095385;27;45160;-69
2022/06/17 02:37:18;;;;;;;4.05;2.35;;;18.80;80.50;;;;;;5086395;27;45427;-69
2022/06/17 02:39:48;;;;;;;4.38;2.58;;;18.80;80.70;;;;;;5087919;27;45278;-69
2022/06/17 02:42:19;;;;;;;2.72;1.90;;;18.80;80.50;;;;;;5089572;27;45158;-69
2022/06/17 02:44:49;;;;;;;2.67;2.10;;;18.70;82.40;;;;;;5088315;27;46535;-69
2022/06/17 02:47:16;;;;;;;2.17;1.80;;;18.70;81.80;;;;;;5088909;27;45327;-69
2022/06/17 02:49:44;;;;;;;3.92;2.20;;;18.70;81.70;;;;;;5089373;27;45431;-69
2022/06/17 02:52:15;;;;;;;3.40;2.30;;;18.60;82.50;;;;;;5078165;27;45338;-69
2022/06/17 02:54:47;;;;;;;4.78;2.40;;;18.60;82.80;;;;;;5094867;27;45320;-69
2022/06/17 02:57:21;;;;;;;3.78;2.50;;;18.60;82.80;;;;;;5081595;27;45168;-69
2022/06/17 02:59:52;;;;;;;3.28;2.10;;;18.60;83.10;;;;;;5087327;27;45521;-69
2022/06/17 03:02:25;;;;;;;6.72;2.20;;;18.60;82.70;;;;;;5079411;28;45311;-69
2022/06/17 03:04:54;;;;;;;4.28;2.30;;;18.50;82.70;;;;;;5082846;27;45199;-69
2022/06/17 03:07:23;;;;;;;4.82;2.22;;;18.50;83.00;;;;;;5091867;27;45577;-69
2022/06/17 03:09:51;;;;;;;5.85;2.25;;;18.60;83.30;;;;;;5082760;28;45282;-69
2022/06/17 03:12:21;;;;;;;2.75;2.22;;;18.60;83.50;;;;;;5082132;28;47072;-69
2022/06/17 03:14:52;;;;;;;3.20;1.92;;;18.60;83.00;;;;;;5081431;28;45915;-69
2022/06/17 03:17:23;;;;;;;10.13;2.80;;;18.60;83.10;;;;;;5073992;28;45421;-69
2022/06/17 03:19:50;;;;;;;8.77;2.13;;;18.60;82.30;;;;;;5077210;28;45241;-69
2022/06/17 03:22:17;;;;;;;5.25;2.10;;;18.50;80.30;;;;;;5089252;27;46541;-69
2022/06/17 03:24:52;;;;;;;4.32;2.20;;;18.40;80.60;;;;;;5108367;27;45191;-69
2022/06/17 03:27:25;;;;;;;6.40;2.13;;;18.30;82.00;;;;;;5086571;27;45244;-69
2022/06/17 03:29:55;;;;;;;5.78;2.45;;;18.30;82.80;;;;;;5098401;27;45260;-69
2022/06/17 03:32:27;;;;;;;4.65;2.25;;;18.30;82.80;;;;;;5091934;27;46254;-69
2022/06/17 03:34:55;;;;;;;9.85;2.40;;;18.30;83.00;;;;;;5085303;27;45349;-69
2022/06/17 03:37:25;;;;;;;3.72;2.40;;;18.20;83.10;;;;;;5080127;27;45354;-69
2022/06/17 03:39:55;;;;;;;6.57;2.42;;;18.20;83.30;;;;;;5103261;27;45235;-69
2022/06/17 03:42:29;;;;;;;6.05;2.67;;;18.20;83.60;;;;;;5094054;27;48344;-69
2022/06/17 03:45:02;;;;;;;3.20;2.10;;;18.20;84.10;;;;;;5094434;27;45297;-69
2022/06/17 03:47:38;;;;;;;3.42;2.35;;;18.30;84.30;;;;;;5078832;28;45200;-69
2022/06/17 03:50:08;;;;;;;3.47;2.40;;;18.30;83.90;;;;;;5100759;27;45657;-69
2022/06/17 03:52:40;;;;;;;4.97;2.03;;;18.30;84.30;;;;;;5088911;27;45568;-69
2022/06/17 03:55:13;;;;;;;3.83;2.15;;;18.20;84.30;;;;;;5074433;27;45315;-69
2022/06/17 03:57:44;;;;;;;4.97;2.58;;;18.20;84.20;;;;;;5086109;27;45377;-69
2022/06/17 04:00:16;;;;;;;6.95;2.78;;;18.20;84.60;;;;;;5076795;28;45291;-69
2022/06/17 04:02:43;;;;;;;4.00;2.30;;;18.20;84.30;;;;;;5088645;27;46318;-69
2022/06/17 04:05:14;;;;;;;3.28;2.22;;;18.30;83.90;;;;;;5107841;27;45086;-69
2022/06/17 04:07:41;;;;;;;7.53;2.92;;;18.40;83.40;;;;;;5085913;27;45458;-69
2022/06/17 04:10:11;;;;;;;5.10;2.70;;;18.40;83.30;;;;;;5081475;27;45316;-69
2022/06/17 04:12:38;;;;;;;4.35;2.60;;;18.40;83.30;;;;;;5094497;27;45267;-69
2022/06/17 04:17:51;;;;;;;8.63;3.20;;;18.50;82.90;;;;;;5163164;22;45189;-68
2022/06/17 04:20:30;;;;;;;6.13;3.05;;;18.50;82.40;;;;;;5047747;28;45316;-68
2022/06/17 04:23:11;;;;;;;7.25;3.05;;;18.50;82.90;;;;;;5048352;28;45533;-68
2022/06/17 04:25:43;;;;;;;4.03;2.63;;;18.50;82.00;;;;;;5047953;28;45222;-68
2022/06/17 04:28:13;;;;;;;2.88;2.58;;;18.60;81.70;;;;;;5044369;28;45157;-68
2022/06/17 04:30:44;;;;;;;5.38;2.90;;;18.60;81.70;;;;;;5047536;28;45629;-68
2022/06/17 04:33:22;;;;;;;3.95;2.45;;;18.60;82.20;;;;;;5041921;28;46311;-68
2022/06/17 04:35:51;;;;;;;3.60;2.40;;;18.70;81.90;;;;;;5042308;28;45208;-68
2022/06/17 04:38:18;;;;;;;5.20;2.80;;;18.70;82.20;;;;;;5045162;28;46973;-68
2022/06/17 04:40:49;;;;;;;5.75;2.63;;;18.90;81.40;;;;;;5046079;28;45363;-68
2022/06/17 04:43:26;;;;;;;6.38;2.58;;;19.00;81.00;;;;;;5044747;28;47348;-68
2022/06/17 04:45:58;;;;;;;5.20;2.63;;;19.10;80.70;;;;;;5047762;28;46494;-68
2022/06/17 04:48:27;;;;;;;7.68;2.50;;;19.10;77.50;;;;;;5039621;28;45331;-69
2022/06/17 04:50:54;;;;;;;5.97;3.25;;;19.10;78.20;;;;;;5044843;28;45603;-69
2022/06/17 04:53:20;;;;;;;4.82;2.60;;;19.20;78.70;;;;;;5044731;28;46619;-69
2022/06/17 04:55:48;;;;;;;3.60;2.50;;;19.20;77.50;;;;;;5045529;28;45316;-69
2022/06/17 04:58:17;;;;;;;3.58;2.20;;;19.30;78.50;;;;;;5042736;28;45228;-69
2022/06/17 05:00:46;;;;;;;5.03;2.30;;;19.40;77.70;;;;;;5044199;28;45399;-69
2022/06/17 05:03:13;;;;;;;5.03;2.03;;;19.50;77.80;;;;;;5044726;28;46172;-68
2022/06/17 05:05:44;;;;;;;3.75;2.22;;;19.60;77.90;;;;;;5048512;28;45319;-69
2022/06/17 05:08:19;;;;;;;8.70;2.97;;;19.60;77.90;;;;;;5047821;28;45312;-69
2022/06/17 05:10:51;;;;;;;4.88;2.85;;;19.50;77.80;;;;;;5045015;28;45335;-68
2022/06/17 05:13:23;;;;;;;5.00;2.63;;;19.50;77.80;;;;;;5042617;28;45328;-69
2022/06/17 05:15:52;;;;;;;3.53;2.10;;;19.60;77.90;;;;;;5042801;28;45170;-69
2022/06/17 05:18:18;;;;;;;7.95;2.60;;;19.60;77.90;;;;;;5041498;28;45401;-69
2022/06/17 05:20:47;;;;;;;4.38;2.25;;;19.60;77.90;;;;;;5043602;28;45456;-69
2022/06/17 05:23:16;;;;;;;5.05;2.25;;;19.60;78.50;;;;;;5045969;28;46042;-69
2022/06/17 05:25:46;;;;;;;5.97;2.20;;;19.70;78.70;;;;;;5044761;28;45421;-69
2022/06/17 05:28:15;;;;;;;4.38;1.95;;;19.70;78.00;;;;;;5041821;28;45173;-69
2022/06/17 05:30:51;;;;;;;3.80;2.78;;;19.80;78.00;;;;;;5038190;28;45372;-69
2022/06/17 05:33:18;;;;;;;3.92;2.70;;;19.90;78.20;;;;;;5046029;28;45282;-69
2022/06/17 05:35:46;;;;;;;4.65;2.72;;;19.90;78.10;;;;;;5045564;28;45226;-69
2022/06/17 05:38:13;;;;;;;5.90;2.88;;;20.00;78.20;;;;;;5046010;28;45260;-69
2022/06/17 05:40:41;;;;;;;3.47;2.42;;;20.00;79.30;;;;;;5045729;28;45466;-69
2022/06/17 05:43:10;;;;;;;4.28;2.63;;;20.10;78.30;;;;;;5047866;28;46606;-69
2022/06/17 05:45:37;;;;;;;5.57;2.85;;;20.10;78.40;;;;;;5047559;28;45126;-69
2022/06/17 05:48:04;;;;;;;5.93;2.60;;;20.10;78.40;;;;;;5044641;28;45722;-69
2022/06/17 05:50:31;;;;;;;6.13;2.70;;;20.10;78.40;;;;;;5045031;28;45202;-69
2022/06/17 05:53:01;;;;;;;6.20;2.40;;;20.10;78.40;;;;;;5047702;28;45987;-69
2022/06/17 05:55:30;;;;;;;6.22;3.38;;;20.10;78.70;;;;;;5047412;28;45907;-69
2022/06/17 05:57:58;;;;;;;5.38;3.13;;;20.10;79.80;;;;;;5042463;28;45393;-69
2022/06/17 06:00:26;;;;;;;7.13;3.40;;;19.80;81.80;;;;;;5044432;28;45704;-69
2022/06/17 06:02:57;;;;;;;3.83;1.90;;;19.70;82.60;;;;;;5039997;28;46527;-70
2022/06/17 06:05:26;;;;;;;3.80;1.90;;;19.90;80.70;;;;;;5040241;28;45369;-70
2022/06/17 06:07:53;;;;;;;8.32;2.67;;;20.20;78.90;;;;;;5044763;28;45602;-70
2022/06/17 06:10:22;;;;;;;3.90;1.90;;;20.40;78.60;;;;;;5034109;28;45401;-69
2022/06/17 06:12:57;;;;;;;4.28;2.15;;;20.40;78.60;;;;;;5041322;28;47931;-69
2022/06/17 06:15:26;;;;;;;4.65;1.80;;;20.60;78.00;;;;;;5042038;28;45285;-69
2022/06/17 06:17:55;;;;;;;2.83;1.50;;;20.70;77.20;;;;;;5040941;28;45255;-69
2022/06/17 06:20:22;;;;;;;2.85;1.52;;;20.70;77.10;;;;;;5039456;28;45335;-69
2022/06/17 06:22:49;;;;;;;2.47;1.50;;;20.80;76.80;;;;;;5042558;28;46486;-69
2022/06/17 06:25:18;;;;;;;3.60;1.50;;;20.90;76.30;;;;;;5039910;28;45456;-69
2022/06/17 06:27:46;;;;;;;1.90;1.58;;;20.90;76.40;;;;;;5045993;28;45622;-70
2022/06/17 06:30:18;;;;;;;4.00;1.90;;;20.90;76.40;;;;;;5039809;28;45169;-70
2022/06/17 06:32:54;;;;;;;3.25;1.40;;;20.90;76.20;;;;;;5045827;28;46200;-69
2022/06/17 06:35:23;;;;;;;2.47;1.40;;;20.90;75.90;;;;;;5043528;28;45251;-69
2022/06/17 06:37:50;;;;;;;2.38;1.40;;;20.90;75.80;;;;;;5041195;28;45367;-69
2022/06/17 06:40:18;;;;;;;5.68;1.60;;;21.00;75.70;;;;;;5039156;28;45490;-69
2022/06/17 06:42:47;;;;;;;2.38;1.75;;;21.00;75.80;;;;;;5041929;28;45232;-69
2022/06/17 06:45:18;;;;;;;1.92;1.60;;;21.00;76.30;;;;;;5040403;28;45355;-70
2022/06/17 06:47:46;;;;;;;2.80;1.55;;;21.00;75.50;;;;;;5045450;28;45651;-69
2022/06/17 06:50:18;;;;;;;3.30;1.65;;;21.00;75.60;;;;;;5040854;28;45185;-69
2022/06/17 06:52:45;;;;;;;5.88;2.30;;;21.10;75.70;;;;;;5045802;28;45224;-69
2022/06/17 06:55:13;;;;;;;2.60;1.50;;;21.00;77.10;;;;;;5043730;28;45540;-69
2022/06/17 06:57:47;;;;;;;1.60;1.40;;;21.00;76.40;;;;;;5044737;28;45236;-69
2022/06/17 07:00:17;;;;;;;3.15;1.35;;;21.10;76.10;;;;;;5037039;28;45358;-69
2022/06/17 07:02:44;;;;;;;2.47;1.50;;;21.10;76.10;;;;;;5040352;28;47397;-69
2022/06/17 07:05:11;;;;;;;1.75;1.40;;;21.10;75.80;;;;;;5038871;28;45545;-69
2022/06/17 07:07:39;;;;;;;1.85;1.42;;;21.10;76.20;;;;;;5044530;28;45358;-69
2022/06/17 07:10:06;;;;;;;2.35;1.63;;;21.10;76.00;;;;;;5038462;28;45452;-69
2022/06/17 07:12:33;;;;;;;2.80;1.50;;;21.10;77.30;;;;;;5038584;28;45227;-69
2022/06/17 07:15:02;;;;;;;2.38;1.35;;;21.10;76.20;;;;;;5040954;28;45158;-69
2022/06/17 07:17:29;;;;;;;1.50;1.20;;;21.20;76.40;;;;;;5038108;28;46189;-70
2022/06/17 07:19:55;;;;;;;1.92;1.40;;;21.20;75.90;;;;;;5039811;28;45459;-69
2022/06/17 07:22:22;;;;;;;2.47;1.35;;;21.30;75.10;;;;;;5036470;28;47240;-69
2022/06/17 07:24:49;;;;;;;2.22;1.80;;;21.40;75.20;;;;;;5039000;28;45486;-69
2022/06/17 07:27:16;;;;;;;3.17;1.60;;;21.40;74.60;;;;;;5040969;28;46721;-69
2022/06/17 07:29:43;;;;;;;2.20;1.60;;;21.50;75.20;;;;;;5043724;28;45557;-69
2022/06/17 07:32:11;;;;;;;4.32;1.25;;;21.40;75.00;;;;;;5037355;28;46321;-69
2022/06/17 07:34:38;;;;;;;2.42;1.55;;;21.40;74.90;;;;;;5040433;28;45384;-69
2022/06/17 07:39:55;;;;;;;2.20;1.27;;;21.40;75.10;;;;;;5035715;28;45339;-69
2022/06/17 07:42:22;;;;;;;1.77;1.42;;;21.30;74.60;;;;;;5039106;28;47189;-70
2022/06/17 07:44:49;;;;;;;1.88;1.48;;;21.40;75.30;;;;;;5042285;28;45241;-69
2022/06/17 07:47:19;;;;;;;3.55;1.60;;;21.40;75.50;;;;;;5044569;28;45343;-69
2022/06/17 07:49:45;;;;;;;2.03;1.50;;;21.30;75.60;;;;;;5039687;28;45438;-69
2022/06/17 07:52:13;;;;;;;2.67;1.63;;;21.30;76.80;;;;;;5041276;28;47394;-69
2022/06/17 07:54:40;;;;;;;2.45;1.35;;;21.30;75.90;;;;;;5048158;28;45280;-69
2022/06/17 07:57:07;;;;;;;3.95;1.45;;;21.40;75.90;;;;;;5041332;28;45250;-69
2022/06/17 07:59:34;;;;;;;1.48;1.30;;;21.40;76.50;;;;;;5038975;28;45544;-69
2022/06/17 08:02:01;;;;;;;2.80;1.42;;;21.40;75.60;;;;;;5045911;28;46655;-69
2022/06/17 08:04:29;;;;;;;1.95;1.10;;;21.50;75.20;;;;;;5044625;28;45435;-69
2022/06/17 08:06:56;;;;;;;2.22;1.42;;;21.50;74.80;;;;;;5044745;28;45212;-69
2022/06/17 08:09:23;;;;;;;2.58;1.30;;;21.50;75.00;;;;;;5041882;28;45899;-69
2022/06/17 08:11:50;;;;;;;6.95;2.10;;;21.50;74.80;;;;;;5047714;28;47078;-69
2022/06/17 08:14:17;;;;;;;3.38;1.90;;;21.40;74.70;;;;;;5046891;28;45739;-69
2022/06/17 08:16:45;;;;;;;6.55;1.80;;;21.30;77.10;;;;;;5009736;28;1071519;-69
2022/06/17 08:19:12;;;;;;;2.80;1.73;;;21.20;75.90;;;;;;5041205;28;45316;-70
2022/06/17 08:21:40;;;;;;;3.80;1.77;;;21.20;75.90;;;;;;5045526;28;48431;-70
2022/06/17 08:24:08;;;;;;;4.18;2.05;;;21.20;76.00;;;;;;5043829;28;45291;-69
2022/06/17 08:26:35;;;;;;;6.88;2.03;;;21.30;77.00;;;;;;5048879;28;45197;-69
2022/06/17 08:29:02;;;;;;;5.00;1.90;;;21.20;76.30;;;;;;5039955;28;45401;-69
2022/06/17 08:31:29;;;;;;;4.75;1.88;;;21.30;76.40;;;;;;5048564;28;45273;-70
2022/06/17 08:33:55;;;;;;;3.40;1.83;;;21.30;75.60;;;;;;5048826;28;45517;-69
2022/06/17 08:36:27;;;;;;;5.22;1.58;;;21.30;76.30;;;;;;5040968;28;45459;-69
2022/06/17 08:39:00;;;;;;;5.40;1.88;;;21.30;76.80;;;;;;5042378;28;45474;-69
2022/06/17 08:41:29;;;;;;;2.95;1.67;;;21.30;76.40;;;;;;5041736;28;46336;-69
2022/06/17 08:44:19;;;;;;;2.83;1.42;;;21.30;76.30;;;;;;5045564;28;45589;-69
2022/06/17 08:46:59;;;;;;;2.95;1.52;;;21.30;75.30;;;;;;5032405;28;45479;-69
2022/06/17 08:49:47;;;;;;;3.95;1.60;;;21.40;73.00;;;;;;5041283;28;45276;-69
2022/06/17 08:52:29;;;;;;;2.60;1.40;;;21.40;75.00;;;;;;5049181;28;46177;-69
2022/06/17 08:55:08;;;;;;;2.95;1.55;;;21.40;76.30;;;;;;5049773;28;45354;-69
2022/06/17 08:57:42;;;;;;;3.47;1.85;;;21.40;76.20;;;;;;5044049;28;45298;-69
2022/06/17 09:00:14;;;;;;;6.95;1.85;;;21.20;77.10;;;;;;5045447;28;45347;-69
2022/06/17 09:03:09;;;;;;;2.50;1.77;;;20.90;74.70;;;;;;5040014;28;47099;-69
2022/06/17 09:05:46;;;;;;;5.07;1.80;;;20.70;76.50;;;;;;5044866;28;45684;-69
2022/06/17 09:08:33;;;;;;;3.97;1.85;;;20.70;76.90;;;;;;5040199;28;45151;-69
2022/06/17 09:11:16;;;;;;;2.60;1.70;;;20.70;77.30;;;;;;5043214;28;45383;-69
2022/06/17 09:13:54;;;;;;;4.43;1.65;;;20.90;76.20;;;;;;5049667;28;47403;-69
2022/06/17 09:16:30;;;;;;;5.05;1.83;;;21.00;74.20;;;;;;5045666;28;45715;-69
2022/06/17 09:19:03;;;;;;;2.28;1.40;;;21.20;71.60;;;;;;5041091;28;45297;-69
2022/06/17 09:21:34;;;;;;;3.50;1.48;;;21.30;72.30;;;;;;5041250;28;45573;-69
2022/06/17 09:24:06;;;;;;;2.28;1.30;;;21.40;72.60;;;;;;5043422;28;45481;-69
2022/06/17 09:26:39;;;;;;;2.25;1.40;;;21.40;70.00;;;;;;5042458;28;47113;-70
2022/06/17 09:29:12;;;;;;;3.45;1.60;;;21.50;70.60;;;;;;5040337;28;45170;-69
2022/06/17 09:31:46;;;;;;;3.20;1.58;;;21.50;69.90;;;;;;5041845;28;45157;-69
2022/06/17 09:34:19;;;;;;;3.88;1.60;;;21.50;70.10;;;;;;5036162;28;45684;-69
2022/06/17 09:36:51;;;;;;;3.40;1.10;;;21.50;70.80;;;;;;5045591;28;45237;-69
2022/06/17 09:39:22;;;;;;;5.60;1.52;;;21.50;72.50;;;;;;5044937;28;45561;-69
2022/06/17 09:41:56;;;;;;;3.97;1.40;;;21.50;71.10;;;;;;5045843;28;45332;-69
2022/06/17 09:44:29;;;;;;;3.15;1.20;;;21.60;72.80;;;;;;5038570;28;45398;-69
2022/06/17 09:47:03;;;;;;;2.85;1.38;;;21.50;72.90;;;;;;5042431;28;45413;-69
2022/06/17 09:49:36;;;;;;;2.13;1.30;;;21.50;73.20;;;;;;5042025;28;45696;-69
2022/06/17 09:52:09;;;;;;;1.98;1.23;;;21.60;74.00;;;;;;5039310;28;46009;-69
2022/06/17 09:54:42;;;;;;;1.60;1.08;;;21.60;73.60;;;;;;5037624;28;47170;-69
2022/06/17 09:57:17;;;;;;;2.10;1.08;;;21.60;74.00;;;;;;5043484;28;45240;-69
2022/06/17 09:59:48;;;;;;;2.13;1.20;;;21.60;73.70;;;;;;5040329;28;45245;-69
2022/06/17 10:02:22;;;;;;;1.85;0.90;;;21.60;73.60;;;;;;5043391;28;45394;-70
2022/06/17 10:04:51;;;;;;;1.92;1.17;;;21.60;73.40;;;;;;5038544;28;46069;-69
2022/06/17 10:07:27;;;;;;;1.45;0.93;;;21.70;73.50;;;;;;5043420;28;46251;-69
2022/06/17 10:10:07;;;;;;;2.20;1.10;;;21.70;73.60;;;;;;5044456;28;45343;-69
2022/06/17 10:12:42;;;;;;;2.85;1.27;;;21.60;73.50;;;;;;5038004;28;45321;-69
2022/06/17 10:15:28;;;;;;;1.85;1.00;;;21.70;73.50;;;;;;5037460;28;45567;-69
2022/06/17 10:21:00;;;;;;;1.00;0.90;;;21.60;73.50;;;;;;5044199;28;45460;-69
2022/06/17 10:23:46;;;;;;;2.38;1.00;;;21.70;73.30;;;;;;5039247;28;45382;-69
2022/06/17 10:26:28;;;;;;;1.95;1.20;;;21.70;73.30;;;;;;5042487;28;45396;-69
2022/06/17 10:29:22;;;;;;;1.80;1.20;;;21.60;73.30;;;;;;5044597;28;45436;-69
2022/06/17 10:31:50;;;;;;;3.00;1.20;;;21.60;73.60;;;;;;5044215;28;45541;-69
2022/06/17 10:34:21;;;;;;;1.88;1.20;;;21.60;73.90;;;;;;5040525;28;45591;-69
2022/06/17 10:36:52;;;;;;;2.78;1.10;;;21.60;73.50;;;;;;5038136;28;47151;-69
2022/06/17 10:39:22;;;;;;;1.93;1.13;;;21.60;73.90;;;;;;5032178;28;45555;-70
2022/06/17 10:41:49;;;;;;;2.75;1.20;;;21.60;73.30;;;;;;5035950;28;45223;-69
2022/06/17 10:44:23;;;;;;;1.83;1.10;;;21.70;73.30;;;;;;5042224;28;45314;-69
2022/06/17 10:46:57;;;;;;;2.88;1.10;;;21.70;73.10;;;;;;5042615;28;46518;-69
2022/06/17 10:49:28;;;;;;;2.15;1.02;;;21.70;72.80;;;;;;5035680;28;45213;-69
2022/06/17 10:51:58;;;;;;;1.95;1.25;;;21.70;73.20;;;;;;5039745;28;45173;-69
2022/06/17 10:54:29;;;;;;;1.90;1.05;;;21.70;73.10;;;;;;5041249;28;45566;-69
2022/06/17 10:57:01;;;;;;;1.48;1.13;;;21.60;73.20;;;;;;5042080;28;45267;-69
2022/06/17 10:59:34;;;;;;;2.60;0.95;;;21.70;73.10;;;;;;5042512;28;45233;-69
2022/06/17 11:02:02;;;;;;;1.15;0.98;;;21.60;73.30;;;;;;5042673;28;45391;-69
2022/06/17 11:04:32;;;;;;;1.90;1.05;;;21.60;73.50;;;;;;5044755;28;45086;-69
2022/06/17 11:07:01;;;;;;;4.43;1.10;;;21.60;73.10;;;;;;5039921;28;46755;-69
2022/06/17 11:09:33;;;;;;;2.05;1.13;;;21.60;73.20;;;;;;5043413;28;45225;-69
2022/06/17 11:12:04;;;;;;;4.72;1.70;;;21.60;73.10;;;;;;5045858;28;45231;-69
2022/06/17 11:14:38;;;;;;;2.50;1.30;;;21.50;73.50;;;;;;5044959;28;45413;-69
2022/06/17 11:17:16;;;;;;;1.48;1.02;;;21.50;73.10;;;;;;5043610;28;47977;-69
2022/06/17 11:19:45;;;;;;;2.72;1.25;;;21.50;73.60;;;;;;5040482;28;45191;-69
2022/06/17 11:22:20;;;;;;;6.13;1.23;;;21.50;73.40;;;;;;5037971;28;45238;-69
2022/06/17 11:24:54;;;;;;;4.45;1.10;;;21.50;72.40;;;;;;5050393;28;45596;-69
2022/06/17 11:27:28;;;;;;;2.42;1.15;;;21.50;73.20;;;;;;5043625;28;45481;-69
2022/06/17 11:30:11;;;;;;;1.65;0.98;;;21.50;73.60;;;;;;5044256;28;45257;-69
2022/06/17 11:32:37;;;;;;;2.47;1.23;;;21.50;73.50;;;;;;5043609;28;45348;-69
2022/06/17 11:35:26;;;;;;;1.40;1.00;;;21.50;73.70;;;;;;5047247;28;45390;-69
2022/06/17 11:37:55;;;;;;;1.30;0.90;;;21.50;73.60;;;;;;5043258;28;45505;-69
2022/06/17 11:40:24;;;;;;;6.63;1.30;;;21.50;73.60;;;;;;5044583;28;45640;-69
2022/06/17 11:42:53;;;;;;;2.10;1.08;;;21.50;74.10;;;;;;5045768;28;45217;-69
2022/06/17 11:45:25;;;;;;;1.45;1.00;;;21.50;73.70;;;;;;5047652;28;45155;-69
2022/06/17 11:47:59;;;;;;;0.95;0.70;;;21.50;73.80;;;;;;5047064;28;47459;-69
2022/06/17 11:50:30;;;;;;;1.00;0.90;;;21.50;73.80;;;;;;5029750;28;45666;-69
2022/06/17 11:53:04;;;;;;;2.42;1.00;;;21.50;73.60;;;;;;5047018;28;45367;-69
2022/06/17 11:55:33;;;;;;;1.42;0.98;;;21.50;73.70;;;;;;5045585;28;45300;-69
2022/06/17 11:58:00;;;;;;;2.65;0.90;;;21.50;72.90;;;;;;5047000;28;45343;-69
2022/06/17 12:00:45;;;;;;;2.67;1.00;;;21.50;73.30;;;;;;5045736;28;45228;-69
2022/06/17 12:03:13;;;;;;;0.93;0.65;;;21.50;73.20;;;;;;5047072;28;45225;-69
2022/06/17 12:05:40;;;;;;;2.35;0.98;;;21.50;73.30;;;;;;5045310;28;45400;-69
2022/06/17 12:08:15;;;;;;;1.60;0.93;;;21.40;73.60;;;;;;5038731;28;45223;-69
2022/06/17 12:10:47;;;;;;;1.63;0.70;;;21.40;73.60;;;;;;5032117;28;45151;-69
2022/06/17 12:13:29;;;;;;;1.40;0.77;;;21.40;72.80;;;;;;5045033;28;45174;-69
2022/06/17 12:16:03;;;;;;;0.85;0.77;;;21.50;72.80;;;;;;5046824;28;45260;-69
2022/06/17 12:18:35;;;;;;;1.63;1.08;;;21.50;73.00;;;;;;5045402;28;45477;-69
2022/06/17 12:21:21;;;;;;;1.50;0.82;;;21.50;73.00;;;;;;5046298;28;45086;-69
2022/06/17 12:23:52;;;;;;;1.50;0.80;;;21.50;73.00;;;;;;5047281;28;45193;-69
2022/06/17 12:26:24;;;;;;;1.33;0.70;;;21.50;72.90;;;;;;5046623;28;45316;-69
2022/06/17 12:29:00;;;;;;;3.42;0.80;;;21.50;72.50;;;;;;5044873;28;46202;-69
2022/06/17 12:31:41;;;;;;;1.33;0.75;;;21.50;72.90;;;;;;5038684;28;45334;-69
2022/06/17 12:34:17;;;;;;;1.30;0.65;;;21.50;73.00;;;;;;5033660;28;47032;-69
2022/06/17 12:36:51;;;;;;;0.82;0.60;;;21.50;72.90;;;;;;5037302;28;45338;-69
2022/06/17 12:39:34;;;;;;;1.00;0.77;;;21.50;73.80;;;;;;5042895;28;45232;-69
2022/06/17 12:42:05;;;;;;;1.45;0.82;;;21.50;72.80;;;;;;5041681;28;45224;-69
2022/06/17 12:44:43;;;;;;;0.65;0.60;;;21.50;72.50;;;;;;5044208;28;45205;-69
2022/06/17 12:47:18;;;;;;;1.17;0.70;;;21.50;72.60;;;;;;5038444;28;45087;-69
2022/06/17 12:55:45;;;;;;;0.98;0.60;;;21.60;72.30;;;;;;5043115;28;45230;-69
2022/06/17 12:58:23;;;;;;;1.02;0.70;;;21.60;72.20;;;;;;5043302;28;45282;-69
2022/06/17 13:00:53;;;;;;;2.05;0.80;;;21.60;72.70;;;;;;5043387;28;47159;-70
2022/06/17 13:03:52;;;;;;;3.33;1.05;;;21.60;72.40;;;;;;5039499;28;45256;-70
2022/06/17 13:06:27;;;;;;;1.42;0.80;;;21.60;72.40;;;;;;5042444;28;45419;-70
2022/06/17 13:09:01;;;;;;;1.70;0.77;;;21.60;72.60;;;;;;5041380;28;45335;-70
2022/06/17 13:11:35;;;;;;;1.77;0.80;;;21.70;72.30;;;;;;5042432;28;46542;-70
2022/06/17 13:14:15;;;;;;;0.93;0.60;;;21.80;72.20;;;;;;5046985;28;45156;-70
2022/06/17 13:16:48;;;;;;;0.77;0.70;;;21.80;71.90;;;;;;5043721;28;45355;-70
2022/06/17 13:19:23;;;;;;;1.60;0.73;;;21.80;71.80;;;;;;5041492;28;45323;-70
2022/06/17 13:22:01;;;;;;;1.88;0.90;;;21.80;72.10;;;;;;5044305;28;46135;-70
2022/06/17 13:24:36;;;;;;;3.30;0.73;;;21.80;72.50;;;;;;5044664;28;45578;-70